Terminal Aerodrome Forecast
Issued by NWS Albuquerque, NM

Home | Current Version | Previous Version | Text Only | Print | Product List | Glossary On
Versions: 1 2 3 4 5 6 7 8 9 10 11 12 13 14 15 16 17
000
FTUS45 KABQ 230522
TAFABQ
TAF
KABQ 230522Z 2306/2406 VRB05KT P6SM SKC
     FM231800 20010KT P6SM SCT090
     FM232100 21014G23KT P6SM SCT100
     FM240200 27015KT P6SM BKN080=

USA.gov is the U.S. government's official web portal to all federal, state and local government web resources and services.